createdAt,value
2022-12-01T00:00:06.486Z,7.90
2022-12-01T00:02:34.253Z,7.90
2022-12-01T00:05:02.336Z,8.00
2022-12-01T00:07:30.232Z,8.00
2022-12-01T00:10:16.869Z,8.00
2022-12-01T00:12:45.350Z,8.20
2022-12-01T00:15:13.265Z,8.20
2022-12-01T00:17:43.674Z,8.20
2022-12-01T00:20:12.133Z,8.30
2022-12-01T00:22:42.882Z,8.40
2022-12-01T00:25:12.250Z,8.20
2022-12-01T00:27:40.401Z,7.80
2022-12-01T00:30:09.935Z,7.60
2022-12-01T00:32:37.695Z,7.30
2022-12-01T00:35:05.979Z,7.10
2022-12-01T00:37:34.262Z,7.10
2022-12-01T00:40:01.998Z,7.00
2022-12-01T00:42:31.031Z,6.90
2022-12-01T00:44:58.742Z,7.10
2022-12-01T00:47:26.474Z,7.10
2022-12-01T00:49:54.150Z,7.00
2022-12-01T00:52:21.816Z,6.90
2022-12-01T00:54:49.521Z,6.90
2022-12-01T00:57:17.196Z,6.80
2022-12-01T00:59:46.496Z,6.90
2022-12-01T01:02:14.433Z,7.20
2022-12-01T01:04:42.233Z,7.30
2022-12-01T01:07:09.939Z,7.40
2022-12-01T01:09:37.817Z,7.30
2022-12-01T01:12:05.497Z,7.30
2022-12-01T01:14:33.274Z,7.20
2022-12-01T01:17:02.408Z,7.10
2022-12-01T01:19:30.147Z,7.00
2022-12-01T01:21:57.826Z,6.80
2022-12-01T01:24:25.545Z,6.90
2022-12-01T01:26:55.288Z,6.90
2022-12-01T01:29:23.050Z,6.90
2022-12-01T01:31:50.884Z,6.90
2022-12-01T01:34:19.931Z,7.00
2022-12-01T01:36:47.632Z,7.20
2022-12-01T01:39:15.349Z,7.30
2022-12-01T01:41:43.046Z,7.30
2022-12-01T01:44:29.533Z,7.20
2022-12-01T01:46:57.274Z,6.90
2022-12-01T01:49:26.317Z,6.90
2022-12-01T01:51:55.253Z,6.70
2022-12-01T01:54:25.969Z,6.70
2022-12-01T01:56:54.062Z,6.70
2022-12-01T01:59:25.829Z,6.70
2022-12-01T02:02:01.101Z,6.80
2022-12-01T02:04:30.261Z,6.80
2022-12-01T02:06:57.984Z,6.80
2022-12-01T02:09:25.694Z,6.80
2022-12-01T02:11:58.981Z,6.90
2022-12-01T02:14:42.172Z,7.10
2022-12-01T02:17:13.728Z,7.10
2022-12-01T02:19:55.375Z,7.30
2022-12-01T02:22:28.629Z,7.40
2022-12-01T02:25:13.980Z,7.50
2022-12-01T02:27:52.570Z,7.50
2022-12-01T02:30:28.128Z,7.30
2022-12-01T02:33:02.681Z,7.20
2022-12-01T02:35:32.945Z,7.20
2022-12-01T02:38:10.750Z,7.20
2022-12-01T02:40:41.424Z,7.20
2022-12-01T02:43:12.848Z,7.10
2022-12-01T02:45:44.369Z,7.10
2022-12-01T02:48:13.326Z,7.00
2022-12-01T02:50:41.842Z,6.90
2022-12-01T02:53:11.072Z,6.90
2022-12-01T02:55:46.673Z,6.90
2022-12-01T02:58:15.211Z,7.00
2022-12-01T03:00:48.930Z,6.90
2022-12-01T03:03:31.599Z,6.90
2022-12-01T03:06:05.782Z,6.90
2022-12-01T03:08:36.901Z,6.90
2022-12-01T03:11:04.634Z,6.90
2022-12-01T03:13:36.030Z,6.90
2022-12-01T03:16:08.752Z,6.90
2022-12-01T03:18:38.106Z,6.80
2022-12-01T03:21:08.584Z,6.80
2022-12-01T03:23:38.570Z,6.90
2022-12-01T03:26:08.558Z,6.80
2022-12-01T03:28:38.737Z,6.70
2022-12-01T03:31:09.927Z,6.80
2022-12-01T03:33:40.185Z,6.90
2022-12-01T03:36:09.822Z,7.10
2022-12-01T03:38:38.378Z,7.20
2022-12-01T03:41:08.218Z,7.30
2022-12-01T03:43:37.686Z,7.10
2022-12-01T03:46:08.385Z,7.20
2022-12-01T03:48:38.364Z,7.20
2022-12-01T03:51:10.527Z,7.30
2022-12-01T03:53:41.383Z,7.30
2022-12-01T03:56:09.353Z,7.30
2022-12-01T03:58:38.656Z,7.30
2022-12-01T04:01:08.117Z,7.30
2022-12-01T04:03:37.304Z,7.30
2022-12-01T04:06:05.518Z,7.30
2022-12-01T04:08:33.764Z,7.30
2022-12-01T04:11:21.436Z,7.30
2022-12-01T04:13:48.137Z,7.30
2022-12-01T04:16:15.844Z,7.30
2022-12-01T04:18:45.111Z,7.30
2022-12-01T04:21:12.780Z,7.40
2022-12-01T04:23:57.866Z,7.10
2022-12-01T04:26:25.547Z,7.20
2022-12-01T04:28:53.202Z,7.20
2022-12-01T04:31:20.942Z,7.10
2022-12-01T04:33:50.031Z,7.20
2022-12-01T04:36:17.710Z,7.10
2022-12-01T04:38:45.506Z,7.20
2022-12-01T04:41:13.801Z,7.10
2022-12-01T04:43:42.009Z,7.10
2022-12-01T04:46:09.979Z,7.20
2022-12-01T04:48:38.449Z,7.20
2022-12-01T04:51:08.397Z,7.10
2022-12-01T04:53:36.342Z,7.10
2022-12-01T04:56:04.560Z,7.10
2022-12-01T04:58:32.974Z,7.00
2022-12-01T05:01:02.285Z,6.90
2022-12-01T05:03:30.080Z,7.00
2022-12-01T05:06:03.644Z,7.00
2022-12-01T05:08:32.770Z,7.10
2022-12-01T05:11:00.547Z,7.10
2022-12-01T05:13:28.432Z,7.00
2022-12-01T05:16:05.051Z,6.80
2022-12-01T05:18:32.987Z,6.90
2022-12-01T05:20:59.805Z,6.90
2022-12-01T05:23:28.629Z,6.90
2022-12-01T05:25:57.802Z,6.90
2022-12-01T05:28:26.486Z,7.00
2022-12-01T05:30:54.983Z,6.70
2022-12-01T05:33:23.108Z,6.70
2022-12-01T05:35:50.945Z,6.50
2022-12-01T05:38:19.028Z,6.30
2022-12-01T05:40:50.705Z,6.30
2022-12-01T05:43:23.894Z,6.20
2022-12-01T05:45:55.363Z,6.00
2022-12-01T05:48:23.090Z,6.10
2022-12-01T05:50:50.905Z,5.90
2022-12-01T05:53:19.131Z,5.90
2022-12-01T05:55:46.933Z,5.80
2022-12-01T05:58:14.605Z,5.60
2022-12-01T06:00:45.994Z,5.60
2022-12-01T06:03:14.076Z,5.50
2022-12-01T06:05:42.015Z,5.50
2022-12-01T06:08:09.705Z,5.40
2022-12-01T06:10:37.406Z,5.30
2022-12-01T06:13:05.093Z,5.30
2022-12-01T06:15:32.787Z,5.20
2022-12-01T06:18:01.904Z,5.20
2022-12-01T06:20:29.581Z,5.20
2022-12-01T06:22:57.326Z,5.10
2022-12-01T06:25:24.976Z,5.10
2022-12-01T06:27:56.152Z,5.00
2022-12-01T06:30:23.967Z,5.00
2022-12-01T06:32:51.656Z,5.10
2022-12-01T06:35:20.682Z,5.00
2022-12-01T06:37:48.388Z,5.00
2022-12-01T06:40:16.130Z,5.00
2022-12-01T06:42:43.805Z,5.00
2022-12-01T06:45:12.124Z,5.00
2022-12-01T06:47:39.827Z,5.10
2022-12-01T06:50:09.855Z,5.00
2022-12-01T06:52:38.943Z,5.00
2022-12-01T06:55:07.621Z,4.90
2022-12-01T06:57:35.613Z,4.80
2022-12-01T07:00:04.710Z,4.80
2022-12-01T07:02:32.662Z,4.80
2022-12-01T07:05:00.328Z,4.80
2022-12-01T07:07:28.060Z,4.80
2022-12-01T07:09:57.154Z,4.80
2022-12-01T07:12:24.861Z,4.80
2022-12-01T07:14:52.558Z,4.80
2022-12-01T07:17:20.249Z,4.70
2022-12-01T07:19:48.269Z,4.70
2022-12-01T07:22:16.141Z,4.80
2022-12-01T07:24:43.859Z,4.80
2022-12-01T07:27:12.858Z,4.70
2022-12-01T07:29:40.537Z,4.70
2022-12-01T07:32:08.238Z,4.70
2022-12-01T07:34:35.911Z,4.70
2022-12-01T07:37:03.594Z,4.70
2022-12-01T07:39:31.268Z,4.70
2022-12-01T07:41:58.961Z,4.70
2022-12-01T07:44:28.052Z,4.70
2022-12-01T07:46:55.746Z,4.70
2022-12-01T07:49:23.425Z,4.70
2022-12-01T07:51:51.242Z,4.80
2022-12-01T07:54:20.952Z,4.80
2022-12-01T07:56:48.637Z,4.80
2022-12-01T07:59:16.304Z,4.70
2022-12-01T08:01:46.190Z,4.70
2022-12-01T08:04:13.964Z,4.70
2022-12-01T08:06:41.731Z,4.70
2022-12-01T08:09:09.441Z,4.70
2022-12-01T08:11:37.122Z,4.70
2022-12-01T08:14:04.810Z,4.70
2022-12-01T08:16:32.587Z,4.70
2022-12-01T08:19:01.627Z,4.80
2022-12-01T08:21:29.332Z,4.90
2022-12-01T08:23:57.780Z,4.90
2022-12-01T08:26:26.308Z,5.00
2022-12-01T08:28:54.029Z,5.00
2022-12-01T08:31:23.010Z,5.00
2022-12-01T08:33:51.521Z,5.00
2022-12-01T08:36:21.450Z,5.00
2022-12-01T08:38:50.917Z,5.10
2022-12-01T08:41:18.701Z,5.20
2022-12-01T08:44:02.112Z,5.20
2022-12-01T08:46:32.144Z,5.30
2022-12-01T08:48:59.955Z,5.30
2022-12-01T08:51:29.212Z,5.30
2022-12-01T08:53:57.904Z,5.20
2022-12-01T08:56:27.031Z,5.00
2022-12-01T08:58:55.252Z,5.00
2022-12-01T09:01:23.114Z,4.90
2022-12-01T09:04:04.939Z,4.80
2022-12-01T09:06:34.706Z,4.80
2022-12-01T09:09:02.679Z,4.90
2022-12-01T09:11:30.357Z,4.90
2022-12-01T09:13:59.702Z,4.90
2022-12-01T09:16:27.506Z,4.90
2022-12-01T09:18:55.684Z,5.00
2022-12-01T09:21:24.623Z,5.00
2022-12-01T09:23:54.362Z,5.00
2022-12-01T09:26:22.057Z,5.00
2022-12-01T09:28:53.374Z,5.00
2022-12-01T09:31:23.269Z,5.00
2022-12-01T09:33:55.032Z,5.10
2022-12-01T09:36:22.741Z,5.00
2022-12-01T09:38:50.489Z,5.10
2022-12-01T09:41:22.030Z,5.00
2022-12-01T09:43:52.186Z,5.00
2022-12-01T09:46:41.488Z,5.00
2022-12-01T09:49:12.287Z,5.00
2022-12-01T09:51:40.017Z,5.00
2022-12-01T09:54:07.881Z,5.00
2022-12-01T09:56:41.245Z,5.00
2022-12-01T09:59:12.121Z,5.10
2022-12-01T10:01:42.553Z,5.10
2022-12-01T10:04:12.197Z,5.20
2022-12-01T10:06:41.757Z,5.20
2022-12-01T10:09:17.605Z,5.30
2022-12-01T10:11:47.409Z,5.30
2022-12-01T10:14:19.707Z,5.20
2022-12-01T10:16:52.262Z,5.30
2022-12-01T10:19:23.542Z,5.30
2022-12-01T10:22:01.544Z,5.20
2022-12-01T10:24:34.833Z,5.10
2022-12-01T10:27:09.089Z,5.10
2022-12-01T10:29:44.989Z,5.20
2022-12-01T10:32:18.206Z,5.20
2022-12-01T10:34:47.758Z,5.30
2022-12-01T10:37:17.491Z,5.30
2022-12-01T10:39:46.599Z,5.30
2022-12-01T10:42:18.402Z,5.40
2022-12-01T10:44:46.400Z,5.40
2022-12-01T10:47:19.230Z,5.50
2022-12-01T10:49:47.152Z,5.50
2022-12-01T10:52:30.644Z,5.40
2022-12-01T10:54:58.470Z,5.40
2022-12-01T10:57:27.996Z,5.40
2022-12-01T10:59:57.554Z,5.30
2022-12-01T11:02:26.876Z,5.30
2022-12-01T11:04:55.896Z,5.30
2022-12-01T11:07:24.690Z,5.30
2022-12-01T11:10:03.589Z,5.30
2022-12-01T11:12:32.950Z,5.30
2022-12-01T11:15:00.866Z,5.30
2022-12-01T11:17:32.778Z,5.30
2022-12-01T11:20:17.704Z,5.40
2022-12-01T11:22:45.526Z,5.40
2022-12-01T11:25:20.073Z,5.40
2022-12-01T11:27:51.610Z,5.40
2022-12-01T11:30:21.944Z,5.50
2022-12-01T11:32:53.177Z,5.60
2022-12-01T11:35:22.349Z,5.50
2022-12-01T11:38:21.084Z,5.50
2022-12-01T11:40:45.383Z,5.50
2022-12-01T11:43:18.515Z,5.50
2022-12-01T11:45:46.342Z,5.50
2022-12-01T11:48:24.054Z,5.40
2022-12-01T11:51:01.251Z,5.40
2022-12-01T11:53:29.589Z,5.40
2022-12-01T11:56:14.120Z,5.40
2022-12-01T11:58:43.430Z,5.50
2022-12-01T12:01:20.544Z,5.50
2022-12-01T12:03:53.757Z,5.70
2022-12-01T12:06:40.466Z,5.70
2022-12-01T12:09:17.067Z,5.70
2022-12-01T12:11:47.533Z,5.70
2022-12-01T12:14:21.983Z,5.70
2022-12-01T12:17:09.677Z,5.70
2022-12-01T12:20:07.296Z,5.70
2022-12-01T12:22:37.217Z,5.70
2022-12-01T12:25:12.542Z,5.80
2022-12-01T12:27:44.814Z,5.70
2022-12-01T12:30:20.540Z,5.80
2022-12-01T12:33:09.046Z,5.70
2022-12-01T12:35:41.645Z,5.60
2022-12-01T12:38:13.866Z,5.60
2022-12-01T12:40:43.424Z,5.60
2022-12-01T12:43:19.656Z,5.70
2022-12-01T12:45:52.722Z,5.80
2022-12-01T12:48:24.476Z,5.90
2022-12-01T12:50:55.622Z,5.90
2022-12-01T12:53:25.335Z,5.90
2022-12-01T12:55:54.391Z,5.80
2022-12-01T12:58:24.349Z,5.80
2022-12-01T13:00:55.251Z,5.80
2022-12-01T13:03:30.666Z,5.80
2022-12-01T13:06:03.035Z,5.90
2022-12-01T13:08:34.552Z,5.80
2022-12-01T13:11:04.149Z,5.90
2022-12-01T13:13:34.925Z,5.90
2022-12-01T13:16:05.321Z,5.90
2022-12-01T13:18:35.408Z,5.90
2022-12-01T13:21:03.881Z,6.00
2022-12-01T13:23:31.795Z,6.00
2022-12-01T13:26:00.581Z,6.00
2022-12-01T13:28:29.554Z,6.00
2022-12-01T13:31:06.513Z,6.00
2022-12-01T13:33:34.803Z,6.00
2022-12-01T13:36:38.269Z,6.00
2022-12-01T13:38:56.745Z,6.00
2022-12-01T13:41:25.915Z,6.00
2022-12-01T13:43:55.648Z,5.90
2022-12-01T13:46:26.052Z,6.00
2022-12-01T13:48:55.217Z,6.00
2022-12-01T13:51:23.236Z,5.90
2022-12-01T13:53:57.037Z,6.00
2022-12-01T13:56:27.224Z,6.10
2022-12-01T13:58:55.530Z,6.10
2022-12-01T14:01:47.165Z,6.10
2022-12-01T14:04:31.205Z,6.10
2022-12-01T14:07:17.622Z,6.10
2022-12-01T14:09:45.328Z,6.00
2022-12-01T14:12:16.491Z,6.00
2022-12-01T14:14:47.230Z,6.10
2022-12-01T14:17:25.332Z,6.00
2022-12-01T14:19:53.624Z,6.00
2022-12-01T14:22:33.042Z,6.00
2022-12-01T14:25:00.969Z,5.90
2022-12-01T14:27:35.596Z,5.90
2022-12-01T14:30:18.202Z,6.00
2022-12-01T14:32:47.204Z,5.90
2022-12-01T14:35:15.782Z,5.90
2022-12-01T14:37:45.018Z,5.80
2022-12-01T14:40:16.548Z,5.80
2022-12-01T14:43:03.016Z,5.80
2022-12-01T14:45:33.800Z,5.80
2022-12-01T14:48:03.922Z,5.70
2022-12-01T14:50:35.205Z,5.70
2022-12-01T14:53:06.926Z,5.60
2022-12-01T14:55:36.672Z,5.60
2022-12-01T14:58:06.406Z,5.50
2022-12-01T15:00:35.746Z,5.60
2022-12-01T15:03:07.948Z,5.50
2022-12-01T15:05:39.287Z,5.60
2022-12-01T15:08:40.327Z,5.50
2022-12-01T15:11:10.679Z,5.50
2022-12-01T15:13:46.278Z,5.50
2022-12-01T15:16:14.979Z,5.50
2022-12-01T15:18:44.329Z,5.50
2022-12-01T15:21:13.228Z,5.40
2022-12-01T15:23:53.443Z,5.50
2022-12-01T15:26:22.205Z,5.40
2022-12-01T15:28:49.951Z,5.40
2022-12-01T15:31:17.935Z,5.30
2022-12-01T15:33:48.258Z,5.30
2022-12-01T15:36:16.383Z,5.30
2022-12-01T15:38:46.768Z,5.20
2022-12-01T15:41:32.713Z,5.20
2022-12-01T15:44:03.357Z,5.20
2022-12-01T15:46:31.680Z,5.20
2022-12-01T15:49:08.445Z,5.30
2022-12-01T15:51:36.520Z,5.30
2022-12-01T15:54:04.366Z,5.30
2022-12-01T15:56:33.584Z,5.20
2022-12-01T15:59:04.927Z,5.20
2022-12-01T16:01:33.217Z,5.20
2022-12-01T16:04:03.242Z,5.20
2022-12-01T16:06:34.058Z,5.30
2022-12-01T16:09:02.616Z,5.20
2022-12-01T16:11:30.764Z,5.10
2022-12-01T16:14:00.711Z,5.10
2022-12-01T16:16:31.017Z,5.10
2022-12-01T16:18:59.925Z,5.00
2022-12-01T16:21:28.460Z,5.00
2022-12-01T16:24:01.398Z,5.10
2022-12-01T16:26:29.620Z,5.10
2022-12-01T16:28:57.784Z,5.10
2022-12-01T16:31:26.563Z,5.00
2022-12-01T16:34:06.621Z,5.10
2022-12-01T16:36:41.873Z,5.00
2022-12-01T16:39:11.071Z,5.00
2022-12-01T16:41:43.520Z,5.00
2022-12-01T16:44:28.251Z,5.00
2022-12-01T16:46:56.731Z,5.00
2022-12-01T16:49:24.445Z,5.00
2022-12-01T16:51:56.785Z,5.00
2022-12-01T16:54:26.533Z,5.00
2022-12-01T16:56:54.198Z,5.10
2022-12-01T16:59:21.887Z,5.20
2022-12-01T17:01:49.645Z,5.20
2022-12-01T17:04:17.842Z,5.30
2022-12-01T17:06:45.557Z,5.30
2022-12-01T17:09:13.238Z,5.30
2022-12-01T17:11:42.315Z,5.40
2022-12-01T17:14:10.002Z,5.40
2022-12-01T17:16:37.977Z,5.40
2022-12-01T17:19:05.664Z,5.40
2022-12-01T17:21:33.332Z,5.30
2022-12-01T17:24:01.163Z,5.30
2022-12-01T17:26:28.851Z,5.30
2022-12-01T17:28:57.873Z,5.20
2022-12-01T17:31:25.660Z,5.20
2022-12-01T17:33:53.374Z,5.30
2022-12-01T17:36:21.084Z,5.20
2022-12-01T17:38:49.619Z,5.20
2022-12-01T17:41:18.346Z,5.20
2022-12-01T17:43:46.167Z,5.20
2022-12-01T17:46:15.427Z,5.20
2022-12-01T17:48:44.277Z,5.20
2022-12-01T17:51:12.504Z,5.20
2022-12-01T17:53:40.573Z,5.20
2022-12-01T17:56:09.183Z,5.10
2022-12-01T17:58:36.998Z,5.10
2022-12-01T18:01:04.874Z,5.10
2022-12-01T18:03:33.877Z,5.00
2022-12-01T18:06:02.548Z,5.00
2022-12-01T18:08:31.432Z,4.90
2022-12-01T18:11:01.505Z,4.90
2022-12-01T18:13:29.229Z,4.80
2022-12-01T18:15:57.223Z,4.80
2022-12-01T18:18:24.913Z,4.80
2022-12-01T18:20:53.929Z,4.80
2022-12-01T18:23:21.602Z,4.70
2022-12-01T18:25:49.282Z,4.60
2022-12-01T18:28:17.098Z,4.60
2022-12-01T18:30:45.042Z,4.50
2022-12-01T18:33:13.210Z,4.50
2022-12-01T18:35:44.517Z,4.50
2022-12-01T18:38:13.547Z,4.60
2022-12-01T18:40:41.305Z,4.60
2022-12-01T18:43:08.999Z,4.70
2022-12-01T18:45:39.814Z,4.70
2022-12-01T18:48:07.750Z,4.70
2022-12-01T18:50:36.077Z,4.70
2022-12-01T18:53:03.767Z,4.70
2022-12-01T18:55:32.809Z,4.70
2022-12-01T18:58:00.622Z,4.70
2022-12-01T19:00:28.339Z,4.70
2022-12-01T19:02:56.049Z,4.70
2022-12-01T19:05:24.079Z,4.70
2022-12-01T19:07:53.996Z,4.70
2022-12-01T19:10:21.807Z,4.70
2022-12-01T19:12:51.301Z,4.70
2022-12-01T19:15:19.286Z,4.70
2022-12-01T19:17:47.002Z,4.70
2022-12-01T19:20:14.833Z,4.70
2022-12-01T19:22:42.510Z,4.60
2022-12-01T19:25:11.446Z,4.50
2022-12-01T19:27:39.124Z,4.50
2022-12-01T19:30:10.211Z,4.60
2022-12-01T19:32:38.679Z,4.60
2022-12-01T19:35:06.821Z,4.60
2022-12-01T19:37:34.498Z,4.60
2022-12-01T19:40:02.181Z,4.50
2022-12-01T19:42:30.200Z,4.60
2022-12-01T19:44:58.526Z,4.60
2022-12-01T19:47:27.545Z,4.50
2022-12-01T19:49:55.244Z,4.60
2022-12-01T19:52:22.922Z,4.60
2022-12-01T19:54:50.816Z,4.60
2022-12-01T19:57:18.707Z,4.60
2022-12-01T19:59:46.406Z,4.70
2022-12-01T20:02:14.265Z,4.70
2022-12-01T20:04:43.340Z,4.60
2022-12-01T20:07:11.009Z,4.60
2022-12-01T20:09:38.842Z,4.50
2022-12-01T20:12:06.698Z,4.50
2022-12-01T20:14:34.402Z,4.50
2022-12-01T20:17:02.128Z,4.60
2022-12-01T20:19:29.941Z,4.60
2022-12-01T20:21:59.002Z,4.60
2022-12-01T20:24:26.690Z,4.60
2022-12-01T20:26:56.565Z,4.60
2022-12-01T20:29:25.087Z,4.70
2022-12-01T20:31:53.697Z,4.70
2022-12-01T20:34:23.136Z,4.60
2022-12-01T20:36:50.850Z,4.50
2022-12-01T20:39:20.257Z,4.60
2022-12-01T20:41:48.588Z,4.70
2022-12-01T20:44:16.966Z,4.60
2022-12-01T20:46:45.809Z,4.60
2022-12-01T20:49:14.174Z,4.50
2022-12-01T20:51:41.859Z,4.50
2022-12-01T20:56:59.704Z,4.60
2022-12-01T20:59:27.497Z,4.60
2022-12-01T21:01:55.567Z,4.60
2022-12-01T21:04:23.349Z,4.70
2022-12-01T21:06:51.116Z,4.70
2022-12-01T21:09:18.797Z,4.80
2022-12-01T21:12:05.720Z,4.80
2022-12-01T21:14:36.972Z,4.70
2022-12-01T21:17:10.473Z,4.80
2022-12-01T21:19:41.163Z,4.80
2022-12-01T21:22:11.290Z,4.90
2022-12-01T21:24:43.791Z,4.90
2022-12-01T21:27:13.655Z,4.90
2022-12-01T21:29:44.660Z,4.90
2022-12-01T21:32:13.962Z,4.90
2022-12-01T21:34:41.657Z,4.90
2022-12-01T21:37:11.995Z,4.90
2022-12-01T21:39:40.282Z,4.90
2022-12-01T21:42:14.668Z,4.80
2022-12-01T21:44:43.930Z,4.80
2022-12-01T21:47:16.235Z,4.80
2022-12-01T21:49:45.412Z,4.90
2022-12-01T21:52:15.312Z,4.90
2022-12-01T21:54:43.017Z,4.80
2022-12-01T21:57:26.003Z,4.90
2022-12-01T21:59:58.657Z,5.00
2022-12-01T22:02:32.119Z,5.00
2022-12-01T22:05:00.401Z,5.00
2022-12-01T22:07:28.215Z,4.90
2022-12-01T22:09:55.939Z,4.90
2022-12-01T22:12:26.905Z,5.30
2022-12-01T22:14:59.645Z,5.70
2022-12-01T22:17:28.656Z,5.90
2022-12-01T22:19:57.905Z,6.10
2022-12-01T22:22:26.454Z,6.20
2022-12-01T22:24:54.816Z,6.40
2022-12-01T22:27:26.550Z,6.50
2022-12-01T22:29:57.202Z,6.60
2022-12-01T22:32:33.149Z,6.70
2022-12-01T22:35:07.391Z,6.70
2022-12-01T22:37:36.333Z,6.80
2022-12-01T22:40:25.675Z,6.80
2022-12-01T22:42:53.392Z,6.90
2022-12-01T22:45:23.130Z,6.80
2022-12-01T22:47:52.223Z,6.90
2022-12-01T22:50:24.677Z,7.00
2022-12-01T22:52:52.526Z,7.00
2022-12-01T22:55:22.464Z,7.00
2022-12-01T22:57:50.132Z,7.00
2022-12-01T23:00:19.772Z,7.00
2022-12-01T23:02:49.238Z,6.90
2022-12-01T23:05:22.695Z,6.90
2022-12-01T23:07:50.757Z,6.90
2022-12-01T23:10:20.007Z,6.80
2022-12-01T23:12:48.475Z,6.80
2022-12-01T23:15:26.457Z,6.70
2022-12-01T23:17:54.127Z,6.70
2022-12-01T23:20:31.052Z,6.80
2022-12-01T23:22:59.979Z,6.80
2022-12-01T23:25:28.270Z,6.80
2022-12-01T23:27:59.250Z,6.80
2022-12-01T23:30:26.962Z,6.90
2022-12-01T23:32:58.125Z,7.00
2022-12-01T23:35:25.830Z,7.00
2022-12-01T23:37:54.998Z,7.10
2022-12-01T23:40:24.175Z,7.00
2022-12-01T23:42:51.929Z,7.10
2022-12-01T23:45:21.450Z,7.20
2022-12-01T23:47:49.387Z,7.10
2022-12-01T23:50:20.101Z,7.00
2022-12-01T23:52:47.878Z,7.00
2022-12-01T23:55:20.392Z,7.00
2022-12-01T23:57:48.225Z,7.10
